createdAt,value
2017-11-21T00:00:51.359Z,89.60
2017-11-21T00:03:19.262Z,89.60
2017-11-21T00:05:47.355Z,89.60
2017-11-21T00:08:15.585Z,89.60
2017-11-21T00:10:43.052Z,89.50
2017-11-21T00:13:11.199Z,89.60
2017-11-21T00:15:38.648Z,89.70
2017-11-21T00:18:06.123Z,89.70
2017-11-21T00:20:33.607Z,89.70
2017-11-21T00:23:01.142Z,89.80
2017-11-21T00:25:28.615Z,89.90
2017-11-21T00:27:57.571Z,89.80
2017-11-21T00:30:25.637Z,89.70
2017-11-21T00:32:53.093Z,89.70
2017-11-21T00:35:21.108Z,89.70
2017-11-21T00:37:48.559Z,89.80
2017-11-21T00:40:16.153Z,89.80
2017-11-21T00:42:44.405Z,89.80
2017-11-21T00:45:12.371Z,89.80
2017-11-21T00:47:40.171Z,89.90
2017-11-21T00:50:07.984Z,90.00
2017-11-21T00:52:35.464Z,90.00
2017-11-21T00:55:02.968Z,90.00
2017-11-21T00:57:30.882Z,89.90
2017-11-21T00:59:59.501Z,90.00
2017-11-21T01:02:28.253Z,90.00
2017-11-21T01:04:55.844Z,89.90
2017-11-21T01:07:24.025Z,89.80
2017-11-21T01:09:51.495Z,89.70
2017-11-21T01:12:18.934Z,89.70
2017-11-21T01:14:46.526Z,89.60
2017-11-21T01:17:14.077Z,89.50
2017-11-21T01:19:41.570Z,89.40
2017-11-21T01:22:09.278Z,89.30
2017-11-21T01:24:37.561Z,89.20
2017-11-21T01:27:05.034Z,89.20
2017-11-21T01:29:32.497Z,89.10
2017-11-21T01:32:00.494Z,89.00
2017-11-21T01:34:28.360Z,88.80
2017-11-21T01:36:56.594Z,88.60
2017-11-21T01:39:24.993Z,88.60
2017-11-21T01:41:52.512Z,88.50
2017-11-21T01:44:19.954Z,88.40
2017-11-21T01:46:47.774Z,88.30
2017-11-21T01:49:16.276Z,88.30
2017-11-21T01:51:43.776Z,88.30
2017-11-21T01:54:11.222Z,88.80
2017-11-21T01:56:39.246Z,87.90
2017-11-21T01:59:06.724Z,87.80
2017-11-21T02:01:35.686Z,87.70
2017-11-21T02:04:03.161Z,87.60
2017-11-21T02:06:30.954Z,87.80
2017-11-21T02:08:59.595Z,87.50
2017-11-21T02:11:27.134Z,87.50
2017-11-21T02:13:54.623Z,87.40
2017-11-21T02:16:22.083Z,87.30
2017-11-21T02:18:49.697Z,87.30
2017-11-21T02:21:17.146Z,87.40
2017-11-21T02:23:44.946Z,87.40
2017-11-21T02:26:12.402Z,87.40
2017-11-21T02:28:39.879Z,87.50
2017-11-21T02:31:07.693Z,87.40
2017-11-21T02:33:35.328Z,87.30
2017-11-21T02:36:03.974Z,87.40
2017-11-21T02:38:31.803Z,87.50
2017-11-21T02:40:59.357Z,87.20
2017-11-21T02:43:26.922Z,87.30
2017-11-21T02:45:54.395Z,87.10
2017-11-21T02:48:22.528Z,87.10
2017-11-21T02:50:51.336Z,87.40
2017-11-21T02:53:18.786Z,87.30
2017-11-21T02:55:46.354Z,87.40
2017-11-21T02:58:14.268Z,87.50
2017-11-21T03:00:41.774Z,87.70
2017-11-21T03:03:09.846Z,87.80
2017-11-21T03:05:37.307Z,87.90
2017-11-21T03:08:05.144Z,88.00
2017-11-21T03:10:33.445Z,88.10
2017-11-21T03:13:00.908Z,88.00
2017-11-21T03:15:28.372Z,88.70
2017-11-21T03:17:55.932Z,87.90
2017-11-21T03:20:35.444Z,88.20
2017-11-21T03:23:24.068Z,88.40
2017-11-21T03:26:04.120Z,88.60
2017-11-21T03:28:38.681Z,88.70
2017-11-21T03:31:06.482Z,88.60
2017-11-21T03:33:34.729Z,88.60
2017-11-21T03:36:03.580Z,88.70
2017-11-21T03:38:31.839Z,88.70
2017-11-21T03:40:59.362Z,88.60
2017-11-21T03:43:26.831Z,88.60
2017-11-21T03:45:54.966Z,88.70
2017-11-21T03:48:23.001Z,88.70
2017-11-21T03:50:52.552Z,88.60
2017-11-21T03:53:21.544Z,88.70
2017-11-21T03:55:49.441Z,88.70
2017-11-21T03:58:17.408Z,88.70
2017-11-21T04:00:46.659Z,88.60
2017-11-21T04:03:14.591Z,88.70
2017-11-21T04:05:43.021Z,88.60
2017-11-21T04:08:10.836Z,88.70
2017-11-21T04:10:38.279Z,88.80
2017-11-21T04:13:05.762Z,88.90
2017-11-21T04:15:34.103Z,88.70
2017-11-21T04:18:01.606Z,88.70
2017-11-21T04:20:30.459Z,88.30
2017-11-21T04:22:58.132Z,88.30
2017-11-21T04:25:25.628Z,88.00
2017-11-21T04:27:54.062Z,88.60
2017-11-21T04:30:21.990Z,88.00
2017-11-21T04:32:49.452Z,88.10
2017-11-21T04:35:17.714Z,88.00
2017-11-21T04:37:45.182Z,88.00
2017-11-21T04:40:12.863Z,87.90
2017-11-21T04:42:40.316Z,87.90
2017-11-21T04:45:07.951Z,87.90
2017-11-21T04:47:35.488Z,87.80
2017-11-21T04:50:03.378Z,87.70
2017-11-21T04:52:30.831Z,87.70
2017-11-21T04:54:58.751Z,87.70
2017-11-21T04:57:26.221Z,87.70
2017-11-21T04:59:54.942Z,87.50
2017-11-21T05:02:22.864Z,87.50
2017-11-21T05:04:50.881Z,87.50
2017-11-21T05:07:18.656Z,87.60
2017-11-21T05:09:46.127Z,87.50
2017-11-21T05:12:14.215Z,87.50
2017-11-21T05:14:41.663Z,87.50
2017-11-21T05:17:09.117Z,87.40
2017-11-21T05:19:37.094Z,87.30
2017-11-21T05:22:04.874Z,87.10
2017-11-21T05:24:33.122Z,87.90
2017-11-21T05:27:00.566Z,87.20
2017-11-21T05:29:28.447Z,87.30
2017-11-21T05:31:56.433Z,87.20
2017-11-21T05:34:24.406Z,87.30
2017-11-21T05:36:51.868Z,87.30
2017-11-21T05:39:19.367Z,88.20
2017-11-21T05:41:46.802Z,87.60
2017-11-21T05:44:14.795Z,87.70
2017-11-21T05:46:42.260Z,87.70
2017-11-21T05:49:10.163Z,87.80
2017-11-21T05:51:37.697Z,87.70
2017-11-21T05:54:05.871Z,87.60
2017-11-21T05:56:33.357Z,87.50
2017-11-21T05:59:01.189Z,87.40
2017-11-21T06:01:29.399Z,87.20
2017-11-21T06:03:57.259Z,87.00
2017-11-21T06:06:25.244Z,86.80
2017-11-21T06:08:53.509Z,86.70
2017-11-21T06:11:21.848Z,86.70
2017-11-21T06:13:49.311Z,86.60
2017-11-21T06:16:17.244Z,86.60
2017-11-21T06:18:44.691Z,86.60
2017-11-21T06:21:12.399Z,86.70
2017-11-21T06:23:39.846Z,86.60
2017-11-21T06:26:07.305Z,86.80
2017-11-21T06:28:34.778Z,86.70
2017-11-21T06:31:02.794Z,86.70
2017-11-21T06:33:30.274Z,86.70
2017-11-21T06:35:58.029Z,87.40
2017-11-21T06:38:25.587Z,86.70
2017-11-21T06:40:53.045Z,86.80
2017-11-21T06:43:20.736Z,86.80
2017-11-21T06:45:48.821Z,86.70
2017-11-21T06:48:16.303Z,86.80
2017-11-21T06:50:44.917Z,86.50
2017-11-21T06:53:12.423Z,86.50
2017-11-21T06:55:40.392Z,86.50
2017-11-21T06:58:07.867Z,86.60
2017-11-21T07:00:36.614Z,86.60
2017-11-21T07:03:04.499Z,86.60
2017-11-21T07:05:32.832Z,86.60
2017-11-21T07:08:00.526Z,86.60
2017-11-21T07:10:27.977Z,86.60
2017-11-21T07:12:55.841Z,86.50
2017-11-21T07:15:23.303Z,86.40
2017-11-21T07:17:50.771Z,86.50
2017-11-21T07:20:18.337Z,86.70
2017-11-21T07:22:45.817Z,86.80
2017-11-21T07:25:14.036Z,86.90
2017-11-21T07:27:41.553Z,86.90
2017-11-21T07:30:09.600Z,86.90
2017-11-21T07:32:37.234Z,86.80
2017-11-21T07:35:05.343Z,86.80
2017-11-21T07:37:33.657Z,86.80
2017-11-21T07:40:01.111Z,86.80
2017-11-21T07:42:29.452Z,86.80
2017-11-21T07:44:57.679Z,86.90
2017-11-21T07:47:25.298Z,86.80
2017-11-21T07:49:53.906Z,86.90
2017-11-21T07:52:21.382Z,86.90
2017-11-21T07:54:49.235Z,86.90
2017-11-21T07:57:17.150Z,87.00
2017-11-21T07:59:45.731Z,86.90
2017-11-21T08:02:13.569Z,86.80
2017-11-21T08:04:41.342Z,87.10
2017-11-21T08:07:09.213Z,86.80
2017-11-21T08:09:36.880Z,86.80
2017-11-21T08:12:04.423Z,87.00
2017-11-21T08:14:31.864Z,86.90
2017-11-21T08:16:59.508Z,87.00
2017-11-21T08:19:27.105Z,87.20
2017-11-21T08:21:54.574Z,87.30
2017-11-21T08:24:22.033Z,87.50
2017-11-21T08:26:50.901Z,87.30
2017-11-21T08:29:18.377Z,87.30
2017-11-21T08:31:47.362Z,87.40
2017-11-21T08:34:16.083Z,87.40
2017-11-21T08:36:43.570Z,87.40
2017-11-21T08:39:11.055Z,87.40
2017-11-21T08:41:39.542Z,87.30
2017-11-21T08:44:08.529Z,87.30
2017-11-21T08:46:35.982Z,87.30
2017-11-21T08:49:03.956Z,87.30
2017-11-21T08:51:31.403Z,87.40
2017-11-21T08:53:58.890Z,87.40
2017-11-21T08:56:27.130Z,88.20
2017-11-21T08:58:54.639Z,87.50
2017-11-21T09:01:22.719Z,87.60
2017-11-21T09:03:50.181Z,87.60
2017-11-21T09:06:18.085Z,87.30
2017-11-21T09:08:46.002Z,87.50
2017-11-21T09:11:14.206Z,87.60
2017-11-21T09:13:42.277Z,87.60
2017-11-21T09:16:09.829Z,87.60
2017-11-21T09:18:37.386Z,87.60
2017-11-21T09:21:05.325Z,87.60
2017-11-21T09:23:33.543Z,87.60
2017-11-21T09:26:01.001Z,87.60
2017-11-21T09:28:29.589Z,87.60
2017-11-21T09:30:58.357Z,87.40
2017-11-21T09:33:27.075Z,87.40
2017-11-21T09:35:54.945Z,87.40
2017-11-21T09:38:23.226Z,87.30
2017-11-21T09:40:50.703Z,87.20
2017-11-21T09:43:18.955Z,87.30
2017-11-21T09:45:46.483Z,87.30
2017-11-21T09:48:14.121Z,87.40
2017-11-21T09:50:42.042Z,87.40
2017-11-21T09:53:09.491Z,87.20
2017-11-21T09:55:36.979Z,87.50
2017-11-21T09:58:04.478Z,87.60
2017-11-21T10:00:32.494Z,87.80
2017-11-21T10:03:00.646Z,87.70
2017-11-21T10:05:28.123Z,87.60
2017-11-21T10:07:56.182Z,87.50
2017-11-21T10:10:23.652Z,87.40
2017-11-21T10:12:51.097Z,87.30
2017-11-21T10:15:18.934Z,87.50
2017-11-21T10:17:46.371Z,87.50
2017-11-21T10:20:14.038Z,87.30
2017-11-21T10:22:41.475Z,87.20
2017-11-21T10:25:09.182Z,87.10
2017-11-21T10:27:37.156Z,87.10
2017-11-21T10:30:04.595Z,87.10
2017-11-21T10:32:33.190Z,87.00
2017-11-21T10:35:01.175Z,87.00
2017-11-21T10:37:29.507Z,86.90
2017-11-21T10:39:56.938Z,86.90
2017-11-21T10:42:24.451Z,87.00
2017-11-21T10:44:51.893Z,87.10
2017-11-21T10:47:19.539Z,87.00
2017-11-21T10:49:47.608Z,87.20
2017-11-21T10:52:15.051Z,87.20
2017-11-21T10:54:42.530Z,87.20
2017-11-21T10:57:09.994Z,87.50
2017-11-21T10:59:37.520Z,87.60
2017-11-21T11:02:05.300Z,87.60
2017-11-21T11:04:32.756Z,87.70
2017-11-21T11:07:00.615Z,87.70
2017-11-21T11:09:28.118Z,87.90
2017-11-21T11:11:55.587Z,88.00
2017-11-21T11:14:23.100Z,87.80
2017-11-21T11:16:51.574Z,87.80
2017-11-21T11:19:19.381Z,87.60
2017-11-21T11:21:47.346Z,87.60
2017-11-21T11:24:14.791Z,87.90
2017-11-21T11:26:42.375Z,87.90
2017-11-21T11:29:10.331Z,88.00
2017-11-21T11:31:37.770Z,88.20
2017-11-21T11:34:05.852Z,88.10
2017-11-21T11:36:33.295Z,88.10
2017-11-21T11:39:01.797Z,88.10
2017-11-21T11:41:29.266Z,87.90
2017-11-21T11:43:56.769Z,88.00
2017-11-21T11:46:24.349Z,87.80
2017-11-21T11:48:51.803Z,88.10
2017-11-21T11:51:19.796Z,88.10
2017-11-21T11:53:47.264Z,88.00
2017-11-21T11:56:14.739Z,88.20
2017-11-21T11:58:42.955Z,88.40
2017-11-21T12:01:10.793Z,88.30
2017-11-21T12:03:39.184Z,88.20
2017-11-21T12:06:07.190Z,88.20
2017-11-21T12:08:34.657Z,88.30
2017-11-21T12:11:02.986Z,88.20
2017-11-21T12:13:30.460Z,88.20
2017-11-21T12:15:58.513Z,88.30
2017-11-21T12:18:26.585Z,88.20
2017-11-21T12:20:54.050Z,88.20
2017-11-21T12:23:21.500Z,88.30
2017-11-21T12:25:48.975Z,88.40
2017-11-21T12:28:16.637Z,88.30
2017-11-21T12:30:44.118Z,88.40
2017-11-21T12:33:12.680Z,88.60
2017-11-21T12:35:40.652Z,89.40
2017-11-21T12:38:08.094Z,88.90
2017-11-21T12:40:35.568Z,88.90
2017-11-21T12:43:03.074Z,88.90
2017-11-21T12:45:30.550Z,88.80
2017-11-21T12:47:58.136Z,89.00
2017-11-21T12:50:26.015Z,89.00
2017-11-21T12:52:53.567Z,89.20
2017-11-21T12:55:21.007Z,89.30
2017-11-21T12:57:48.495Z,89.50
2017-11-21T13:00:16.018Z,89.60
2017-11-21T13:02:44.016Z,89.70
2017-11-21T13:05:11.671Z,89.40
2017-11-21T13:07:39.655Z,89.30
2017-11-21T13:10:07.197Z,89.40
2017-11-21T13:12:34.671Z,89.30
2017-11-21T13:15:02.461Z,89.40
2017-11-21T13:17:29.950Z,89.00
2017-11-21T13:19:57.603Z,89.30
2017-11-21T13:22:25.234Z,89.00
2017-11-21T13:24:53.482Z,89.30
2017-11-21T13:27:20.979Z,89.20
2017-11-21T13:29:48.425Z,89.10
2017-11-21T13:32:15.896Z,89.20
2017-11-21T13:34:43.878Z,89.20
2017-11-21T13:37:11.323Z,90.10
2017-11-21T13:39:38.870Z,89.40
2017-11-21T13:42:06.319Z,89.50
2017-11-21T13:44:33.785Z,89.40
2017-11-21T13:47:01.259Z,89.30
2017-11-21T13:49:29.159Z,89.50
2017-11-21T13:51:57.120Z,89.50
2017-11-21T13:54:25.100Z,89.40
2017-11-21T13:56:52.543Z,89.40
2017-11-21T13:59:20.010Z,89.40
2017-11-21T14:01:47.997Z,89.40
2017-11-21T14:04:15.454Z,89.50
2017-11-21T14:06:43.423Z,89.30
2017-11-21T14:09:10.864Z,89.10
2017-11-21T14:11:38.330Z,89.00
2017-11-21T14:14:05.775Z,89.20
2017-11-21T14:16:33.469Z,89.20
2017-11-21T14:19:02.324Z,89.10
2017-11-21T14:21:29.771Z,89.10
2017-11-21T14:23:57.349Z,89.10
2017-11-21T14:26:24.785Z,89.10
2017-11-21T14:28:52.525Z,88.90
2017-11-21T14:31:19.983Z,88.80
2017-11-21T14:33:47.838Z,89.00
2017-11-21T14:36:15.302Z,88.80
2017-11-21T14:38:42.772Z,88.80
2017-11-21T14:41:10.647Z,88.90
2017-11-21T14:43:38.389Z,89.00
2017-11-21T14:46:05.820Z,88.90
2017-11-21T14:48:34.125Z,88.90
2017-11-21T14:51:01.928Z,88.90
2017-11-21T14:53:29.489Z,88.70
2017-11-21T14:55:57.001Z,88.50
2017-11-21T14:58:24.593Z,88.60
2017-11-21T15:00:52.063Z,88.30
2017-11-21T15:03:19.910Z,88.10
2017-11-21T15:05:48.094Z,88.30
2017-11-21T15:08:15.539Z,88.20
2017-11-21T15:10:43.022Z,88.00
2017-11-21T15:13:10.474Z,87.90
2017-11-21T15:15:37.906Z,88.00
2017-11-21T15:18:05.437Z,88.00
2017-11-21T15:20:32.901Z,88.00
2017-11-21T15:23:00.334Z,88.30
2017-11-21T15:25:28.164Z,88.20
2017-11-21T15:27:55.652Z,88.10
2017-11-21T15:30:23.094Z,88.00
2017-11-21T15:32:51.510Z,88.00
2017-11-21T15:35:19.387Z,88.00
2017-11-21T15:37:46.831Z,87.70
2017-11-21T15:40:14.392Z,87.90
2017-11-21T15:42:41.885Z,87.80
2017-11-21T15:45:09.439Z,87.50
2017-11-21T15:47:36.886Z,87.60
2017-11-21T15:50:05.686Z,87.40
2017-11-21T15:52:33.122Z,87.20
2017-11-21T15:55:00.664Z,87.50
2017-11-21T15:57:28.225Z,87.40
2017-11-21T15:59:55.886Z,87.70
2017-11-21T16:02:23.909Z,87.50
2017-11-21T16:04:51.764Z,87.70
2017-11-21T16:07:19.896Z,87.80
2017-11-21T16:09:47.767Z,87.60
2017-11-21T16:12:15.319Z,87.80
2017-11-21T16:14:42.767Z,87.80
2017-11-21T16:17:10.895Z,88.00
2017-11-21T16:19:38.409Z,87.80
2017-11-21T16:22:05.869Z,88.00
2017-11-21T16:24:33.418Z,88.00
2017-11-21T16:27:00.870Z,87.80
2017-11-21T16:29:28.332Z,87.90
2017-11-21T16:31:55.861Z,87.90
2017-11-21T16:34:24.606Z,88.20
2017-11-21T16:36:52.383Z,88.10
2017-11-21T16:39:19.857Z,87.80
2017-11-21T16:41:48.072Z,88.20
2017-11-21T16:44:15.545Z,88.10
2017-11-21T16:46:43.061Z,88.00
2017-11-21T16:49:11.093Z,88.00
2017-11-21T16:51:39.307Z,88.00
2017-11-21T16:54:06.990Z,88.00
2017-11-21T16:56:34.547Z,88.20
2017-11-21T16:59:02.005Z,88.30
2017-11-21T17:01:30.010Z,88.20
2017-11-21T17:03:57.941Z,88.00
2017-11-21T17:06:25.847Z,88.00
2017-11-21T17:08:53.292Z,87.90
2017-11-21T17:11:20.802Z,87.90
2017-11-21T17:13:48.691Z,87.80
2017-11-21T17:16:16.189Z,87.70
2017-11-21T17:18:43.664Z,87.90
2017-11-21T17:21:11.930Z,87.90
2017-11-21T17:23:39.441Z,87.90
2017-11-21T17:26:07.068Z,88.30
2017-11-21T17:28:35.303Z,87.40
2017-11-21T17:31:02.970Z,87.20
2017-11-21T17:33:30.443Z,87.30
2017-11-21T17:35:59.013Z,87.80
2017-11-21T17:38:26.659Z,87.50
2017-11-21T17:40:54.122Z,87.50
2017-11-21T17:43:21.566Z,87.20
2017-11-21T17:45:49.052Z,87.30
2017-11-21T17:48:16.494Z,87.20
2017-11-21T17:50:44.526Z,87.10
2017-11-21T17:53:11.984Z,87.30
2017-11-21T17:55:39.462Z,87.40
2017-11-21T17:58:06.911Z,87.10
2017-11-21T18:00:34.386Z,86.90
2017-11-21T18:03:02.402Z,87.20
2017-11-21T18:05:30.186Z,87.00
2017-11-21T18:07:58.006Z,86.80
2017-11-21T18:10:25.460Z,86.40
2017-11-21T18:12:53.410Z,85.90
2017-11-21T18:15:20.879Z,87.00
2017-11-21T18:17:48.373Z,86.00
2017-11-21T18:20:16.005Z,86.20
2017-11-21T18:22:43.506Z,86.30
2017-11-21T18:25:11.594Z,86.30
2017-11-21T18:27:39.082Z,85.70
2017-11-21T18:30:06.592Z,85.30
2017-11-21T18:32:34.038Z,85.50
2017-11-21T18:35:02.148Z,85.50
2017-11-21T18:37:29.618Z,85.40
2017-11-21T18:39:57.271Z,85.20
2017-11-21T18:42:24.721Z,85.10
2017-11-21T18:44:52.196Z,85.30
2017-11-21T18:47:19.795Z,85.30
2017-11-21T18:49:47.820Z,85.00
2017-11-21T18:52:15.263Z,84.70
2017-11-21T18:54:42.743Z,85.00
2017-11-21T18:57:10.202Z,84.70
2017-11-21T18:59:38.630Z,84.70
2017-11-21T19:02:07.207Z,84.70
2017-11-21T19:04:36.141Z,84.50
2017-11-21T19:07:05.046Z,84.30
2017-11-21T19:09:32.652Z,84.10
2017-11-21T19:12:00.111Z,83.90
2017-11-21T19:14:27.591Z,83.90
2017-11-21T19:16:55.129Z,83.50
2017-11-21T19:19:22.611Z,83.90
2017-11-21T19:21:50.199Z,83.60
2017-11-21T19:24:18.427Z,83.70
2017-11-21T19:26:45.915Z,83.00
2017-11-21T19:29:13.636Z,83.10
2017-11-21T19:31:41.103Z,83.00
2017-11-21T19:34:09.007Z,82.60
2017-11-21T19:36:36.454Z,82.70
2017-11-21T19:39:04.039Z,82.50
2017-11-21T19:41:32.349Z,82.70
2017-11-21T19:43:59.836Z,82.70
2017-11-21T19:46:27.672Z,82.50
2017-11-21T19:48:55.229Z,82.60
2017-11-21T19:51:28.039Z,82.30
2017-11-21T19:53:55.514Z,82.30
2017-11-21T19:56:23.063Z,82.50
2017-11-21T19:58:50.557Z,82.20
2017-11-21T20:01:19.307Z,82.00
2017-11-21T20:03:48.520Z,82.00
2017-11-21T20:06:20.445Z,82.00
2017-11-21T20:08:47.922Z,82.20
2017-11-21T20:11:15.370Z,81.80
2017-11-21T20:13:42.834Z,81.90
2017-11-21T20:16:10.479Z,81.50
2017-11-21T20:18:38.016Z,81.40
2017-11-21T20:21:05.568Z,81.50
2017-11-21T20:23:33.065Z,81.30
2017-11-21T20:26:00.594Z,81.40
2017-11-21T20:28:28.060Z,81.20
2017-11-21T20:30:55.534Z,81.00
2017-11-21T20:33:23.218Z,80.90
2017-11-21T20:35:51.047Z,80.80
2017-11-21T20:38:18.553Z,80.70
2017-11-21T20:40:46.870Z,80.50
2017-11-21T20:43:14.837Z,80.50
2017-11-21T20:45:42.772Z,80.10
2017-11-21T20:48:11.235Z,79.90
2017-11-21T20:50:39.024Z,79.90
2017-11-21T20:53:06.491Z,80.10
2017-11-21T20:55:34.034Z,79.80
2017-11-21T20:58:02.271Z,79.80
2017-11-21T21:00:29.754Z,79.70
2017-11-21T21:02:58.590Z,79.50
2017-11-21T21:05:26.548Z,79.50
2017-11-21T21:07:54.838Z,79.50
2017-11-21T21:12:57.071Z,79.40
2017-11-21T21:15:25.385Z,79.20
2017-11-21T21:17:52.873Z,79.20
2017-11-21T21:20:20.323Z,79.10
2017-11-21T21:22:47.962Z,79.20
2017-11-21T21:25:15.425Z,79.40
2017-11-21T21:27:43.103Z,79.10
2017-11-21T21:30:11.056Z,79.00
2017-11-21T21:32:38.523Z,78.70
2017-11-21T21:35:06.227Z,78.60
2017-11-21T21:37:34.439Z,78.20
2017-11-21T21:40:01.911Z,78.70
2017-11-21T21:42:29.414Z,78.90
2017-11-21T21:44:57.708Z,79.00
2017-11-21T21:47:26.394Z,78.80
2017-11-21T21:49:54.467Z,78.80
2017-11-21T21:52:21.994Z,78.60
2017-11-21T21:54:49.482Z,78.20
2017-11-21T21:57:17.038Z,78.60
2017-11-21T21:59:44.498Z,78.40
2017-11-21T22:02:12.242Z,77.90
2017-11-21T22:04:40.459Z,78.10
2017-11-21T22:07:08.303Z,78.10
2017-11-21T22:09:36.119Z,78.50
2017-11-21T22:12:03.656Z,78.40
2017-11-21T22:14:31.108Z,78.00
2017-11-21T22:16:59.118Z,77.70
2017-11-21T22:19:26.850Z,77.90
2017-11-21T22:21:54.423Z,78.60
2017-11-21T22:24:21.878Z,78.00
2017-11-21T22:26:49.367Z,77.80
2017-11-21T22:29:17.768Z,77.30
2017-11-21T22:31:45.236Z,77.20
2017-11-21T22:34:13.180Z,77.50
2017-11-21T22:36:41.396Z,77.20
2017-11-21T22:39:08.882Z,77.20
2017-11-21T22:41:36.341Z,77.40
2017-11-21T22:44:03.792Z,77.20
2017-11-21T22:46:31.434Z,77.10
2017-11-21T22:48:59.424Z,77.00
2017-11-21T22:51:26.902Z,77.10
2017-11-21T22:53:55.123Z,77.30
2017-11-21T22:56:22.598Z,76.70
2017-11-21T22:58:50.052Z,76.60
2017-11-21T23:01:18.001Z,76.50
2017-11-21T23:03:45.795Z,76.50
2017-11-21T23:06:13.762Z,76.80
2017-11-21T23:08:41.835Z,76.00
2017-11-21T23:11:09.279Z,75.90
2017-11-21T23:13:36.741Z,76.00
2017-11-21T23:16:04.196Z,75.90
2017-11-21T23:18:31.839Z,75.40
2017-11-21T23:20:59.290Z,75.40
2017-11-21T23:23:26.869Z,75.40
2017-11-21T23:25:54.309Z,75.10
2017-11-21T23:28:21.908Z,75.10
2017-11-21T23:30:49.356Z,75.10
2017-11-21T23:33:16.817Z,75.40
2017-11-21T23:35:45.483Z,75.40
2017-11-21T23:38:12.931Z,75.30
2017-11-21T23:40:40.494Z,75.00
2017-11-21T23:43:07.962Z,74.90
2017-11-21T23:45:35.850Z,75.00
2017-11-21T23:48:04.080Z,75.20
2017-11-21T23:50:32.057Z,75.10
2017-11-21T23:52:59.510Z,75.10
2017-11-21T23:55:26.990Z,75.50
2017-11-21T23:57:54.470Z,75.00
